createdAt,value
2018-09-13T00:00:41.282Z,16.10
2018-09-13T00:03:09.885Z,16.10
2018-09-13T00:05:38.464Z,17.43
2018-09-13T00:08:07.026Z,15.83
2018-09-13T00:10:35.927Z,18.03
2018-09-13T00:13:04.548Z,16.77
2018-09-13T00:15:33.559Z,15.83
2018-09-13T00:18:02.277Z,15.80
2018-09-13T00:20:30.835Z,16.73
2018-09-13T00:22:59.440Z,18.13
2018-09-13T00:25:28.017Z,16.90
2018-09-13T00:27:56.739Z,16.20
2018-09-13T00:30:25.620Z,17.57
2018-09-13T00:32:54.208Z,16.07
2018-09-13T00:35:22.746Z,17.50
2018-09-13T00:37:51.267Z,22.17
2018-09-13T00:40:20.285Z,19.70
2018-09-13T00:42:49.297Z,18.73
2018-09-13T00:45:18.128Z,20.43
2018-09-13T00:47:46.686Z,22.37
2018-09-13T00:50:15.875Z,16.97
2018-09-13T00:52:44.522Z,17.47
2018-09-13T00:55:13.450Z,17.80
2018-09-13T00:57:42.243Z,21.20
2018-09-13T01:00:10.817Z,23.47
2018-09-13T01:02:39.450Z,22.67
2018-09-13T01:05:08.392Z,21.60
2018-09-13T01:07:37.230Z,24.17
2018-09-13T01:10:05.821Z,25.23
2018-09-13T01:12:34.549Z,29.07
2018-09-13T01:15:03.396Z,27.57
2018-09-13T01:17:31.967Z,25.13
2018-09-13T01:20:00.993Z,25.83
2018-09-13T01:22:29.573Z,26.77
2018-09-13T01:24:58.260Z,27.60
2018-09-13T01:27:27.966Z,28.97
2018-09-13T01:29:57.799Z,24.10
2018-09-13T01:32:26.457Z,26.83
2018-09-13T01:34:55.404Z,24.20
2018-09-13T01:37:24.011Z,23.67
2018-09-13T01:39:52.579Z,26.20
2018-09-13T01:42:21.153Z,25.43
2018-09-13T01:44:49.688Z,24.90
2018-09-13T01:47:18.602Z,25.50
2018-09-13T01:49:47.224Z,24.17
2018-09-13T01:52:15.844Z,19.93
2018-09-13T01:54:44.721Z,22.30
2018-09-13T01:57:13.352Z,21.03
2018-09-13T01:59:41.883Z,25.23
2018-09-13T02:02:10.628Z,21.43
2018-09-13T02:04:39.403Z,21.67
2018-09-13T02:07:08.367Z,26.33
2018-09-13T02:09:37.006Z,22.80
2018-09-13T02:12:05.867Z,22.23
2018-09-13T02:14:34.426Z,22.70
2018-09-13T02:17:03.188Z,26.13
2018-09-13T02:19:31.881Z,22.27
2018-09-13T02:22:00.614Z,23.93
2018-09-13T02:24:29.206Z,25.90
2018-09-13T02:26:57.857Z,21.50
2018-09-13T02:29:26.407Z,24.40
2018-09-13T02:31:54.990Z,25.80
2018-09-13T02:34:23.741Z,26.03
2018-09-13T02:36:52.405Z,21.73
2018-09-13T02:39:20.965Z,25.00
2018-09-13T02:41:49.583Z,24.23
2018-09-13T02:44:18.237Z,22.60
2018-09-13T02:46:46.962Z,25.73
2018-09-13T02:49:15.967Z,22.03
2018-09-13T02:51:44.631Z,23.03
2018-09-13T02:54:13.367Z,25.77
2018-09-13T02:56:41.970Z,21.50
2018-09-13T02:59:10.779Z,21.97
2018-09-13T03:01:39.422Z,19.20
2018-09-13T03:04:07.941Z,23.77
2018-09-13T03:06:36.848Z,21.57
2018-09-13T03:09:09.184Z,18.73
2018-09-13T03:11:38.129Z,21.20
2018-09-13T03:14:07.037Z,21.77
2018-09-13T03:16:35.827Z,21.37
2018-09-13T03:19:04.535Z,23.07
2018-09-13T03:21:33.118Z,20.73
2018-09-13T03:24:01.953Z,21.20
2018-09-13T03:26:30.606Z,23.93
2018-09-13T03:28:59.229Z,23.40
2018-09-13T03:31:28.105Z,19.47
2018-09-13T03:33:56.949Z,19.53
2018-09-13T03:36:25.495Z,16.67
2018-09-13T03:38:54.209Z,17.67
2018-09-13T03:41:22.863Z,16.70
2018-09-13T03:43:51.490Z,14.20
2018-09-13T03:46:20.026Z,15.63
2018-09-13T03:48:48.601Z,14.70
2018-09-13T03:51:17.180Z,15.30
2018-09-13T03:53:45.706Z,13.23
2018-09-13T03:56:14.620Z,17.27
2018-09-13T03:58:43.326Z,16.93
2018-09-13T04:01:11.962Z,13.57
2018-09-13T04:03:40.978Z,12.83
2018-09-13T04:06:09.957Z,11.03
2018-09-13T04:08:38.541Z,13.83
2018-09-13T04:11:07.322Z,14.63
2018-09-13T04:13:36.093Z,11.50
2018-09-13T04:16:04.660Z,11.33
2018-09-13T04:18:33.633Z,14.93
2018-09-13T04:21:02.309Z,17.00
2018-09-13T04:23:30.865Z,16.50
2018-09-13T04:25:59.733Z,15.17
2018-09-13T04:28:28.599Z,15.93
2018-09-13T04:30:57.301Z,19.70
2018-09-13T04:33:25.967Z,19.07
2018-09-13T04:35:55.173Z,20.90
2018-09-13T04:38:23.908Z,20.07
2018-09-13T04:40:52.513Z,19.90
2018-09-13T04:43:21.485Z,20.40
2018-09-13T04:45:51.060Z,18.70
2018-09-13T04:48:19.914Z,18.80
2018-09-13T04:50:48.510Z,17.93
2018-09-13T04:53:17.620Z,19.87
2018-09-13T04:55:46.703Z,18.87
2018-09-13T04:58:15.300Z,17.70
2018-09-13T05:00:43.972Z,18.20
2018-09-13T05:03:12.646Z,21.53
2018-09-13T05:05:41.514Z,15.17
2018-09-13T05:08:10.346Z,14.17
2018-09-13T05:10:38.960Z,19.00
2018-09-13T05:13:07.623Z,14.97
2018-09-13T05:15:36.306Z,16.30
2018-09-13T05:18:05.296Z,7.00
2018-09-13T05:20:33.814Z,8.27
2018-09-13T05:23:02.671Z,10.50
2018-09-13T05:25:31.510Z,13.13
2018-09-13T05:28:00.231Z,10.07
2018-09-13T05:30:29.312Z,13.07
2018-09-13T05:32:58.231Z,9.33
2018-09-13T05:35:26.792Z,8.43
2018-09-13T05:37:55.504Z,5.77
2018-09-13T05:40:24.323Z,5.83
2018-09-13T05:42:53.104Z,7.00
2018-09-13T05:45:22.065Z,54.70
2018-09-13T05:47:50.836Z,6.90
2018-09-13T05:50:19.572Z,7.90
2018-09-13T05:52:48.302Z,5.27
2018-09-13T05:55:17.120Z,5.77
2018-09-13T05:57:45.703Z,4.93
2018-09-13T06:00:14.260Z,5.50
2018-09-13T06:02:42.798Z,4.70
2018-09-13T06:05:11.413Z,4.50
2018-09-13T06:07:40.176Z,5.10
2018-09-13T06:10:08.731Z,6.10
2018-09-13T06:12:37.502Z,5.40
2018-09-13T06:15:06.401Z,6.47
2018-09-13T06:17:35.271Z,4.33
2018-09-13T06:20:03.788Z,4.30
2018-09-13T06:22:32.553Z,5.53
2018-09-13T06:25:01.217Z,4.23
2018-09-13T06:27:30.067Z,6.20
2018-09-13T06:29:58.622Z,9.33
2018-09-13T06:32:27.552Z,8.10
2018-09-13T06:34:56.474Z,9.63
2018-09-13T06:37:25.291Z,10.30
2018-09-13T06:39:54.293Z,13.03
2018-09-13T06:42:22.968Z,10.37
2018-09-13T06:44:51.443Z,10.47
2018-09-13T06:47:19.990Z,11.60
2018-09-13T06:49:48.898Z,11.80
2018-09-13T06:52:18.653Z,10.63
2018-09-13T06:54:48.167Z,11.73
2018-09-13T06:57:16.983Z,8.57
2018-09-13T06:59:45.666Z,9.93
2018-09-13T07:02:14.485Z,7.47
2018-09-13T07:04:43.152Z,7.10
2018-09-13T07:07:11.761Z,7.53
2018-09-13T07:09:40.652Z,7.77
2018-09-13T07:12:09.212Z,10.80
2018-09-13T07:14:37.792Z,7.60
2018-09-13T07:17:06.410Z,7.03
2018-09-13T07:19:34.971Z,7.37
2018-09-13T07:22:03.706Z,5.73
2018-09-13T07:24:32.394Z,5.27
2018-09-13T07:27:01.248Z,5.33
2018-09-13T07:29:29.776Z,7.23
2018-09-13T07:31:58.508Z,4.07
2018-09-13T07:34:27.892Z,3.53
2018-09-13T07:36:56.541Z,4.33
2018-09-13T07:39:25.500Z,3.77
2018-09-13T07:41:54.465Z,5.50
2018-09-13T07:44:23.652Z,6.83
2018-09-13T07:46:52.408Z,17.77
2018-09-13T07:49:21.194Z,8.00
2018-09-13T07:51:49.886Z,3.90
2018-09-13T07:54:18.879Z,2.10
2018-09-13T07:56:47.454Z,1.50
2018-09-13T07:59:16.173Z,1.07
2018-09-13T08:01:44.871Z,1.10
2018-09-13T08:04:13.716Z,0.83
2018-09-13T08:06:42.369Z,1.00
2018-09-13T08:09:12.813Z,2.07
2018-09-13T08:11:42.208Z,1.63
2018-09-13T08:14:11.024Z,1.57
2018-09-13T08:16:39.785Z,2.37
2018-09-13T08:19:08.702Z,3.17
2018-09-13T08:21:37.775Z,1.87
2018-09-13T08:24:06.717Z,1.93
2018-09-13T08:26:35.687Z,1.80
2018-09-13T08:29:04.451Z,1.87
2018-09-13T08:31:33.053Z,1.93
2018-09-13T08:34:02.010Z,2.33
2018-09-13T08:36:30.755Z,2.07
2018-09-13T08:38:59.546Z,2.10
2018-09-13T08:41:28.105Z,1.90
2018-09-13T08:43:56.878Z,1.77
2018-09-13T08:46:25.866Z,1.83
2018-09-13T08:48:54.578Z,2.27
2018-09-13T08:51:23.542Z,2.40
2018-09-13T08:53:52.282Z,2.03
2018-09-13T08:56:21.471Z,4.23
2018-09-13T08:58:50.361Z,1.50
2018-09-13T09:01:18.970Z,2.17
2018-09-13T09:03:47.565Z,1.70
2018-09-13T09:06:16.447Z,1.90
2018-09-13T09:08:49.873Z,2.10
2018-09-13T09:11:18.513Z,1.90
2018-09-13T09:13:47.060Z,1.70
2018-09-13T09:16:15.726Z,2.03
2018-09-13T09:18:44.338Z,1.57
2018-09-13T09:21:12.936Z,1.20
2018-09-13T09:23:41.931Z,1.50
2018-09-13T09:26:10.666Z,1.50
2018-09-13T09:28:39.594Z,3.23
2018-09-13T09:31:08.491Z,1.33
2018-09-13T09:33:37.618Z,0.90
2018-09-13T09:36:06.573Z,1.63
2018-09-13T09:38:35.218Z,1.17
2018-09-13T09:41:03.878Z,1.40
2018-09-13T09:43:32.747Z,1.47
2018-09-13T09:46:01.392Z,1.93
2018-09-13T09:48:30.227Z,1.50
2018-09-13T09:50:58.954Z,1.30
2018-09-13T09:53:27.694Z,1.60
2018-09-13T09:55:56.730Z,2.20
2018-09-13T09:58:25.329Z,0.93
2018-09-13T10:00:59.272Z,2.83
2018-09-13T10:03:27.856Z,1.37
2018-09-13T10:05:56.599Z,1.90
2018-09-13T10:08:25.400Z,1.20
2018-09-13T10:10:54.007Z,1.70
2018-09-13T10:13:22.640Z,2.07
2018-09-13T10:15:56.398Z,4.33
2018-09-13T10:18:30.514Z,1.87
2018-09-13T10:21:04.614Z,1.60
2018-09-13T10:23:38.495Z,2.53
2018-09-13T10:27:13.236Z,2.03
2018-09-13T10:29:48.330Z,2.57
2018-09-13T10:32:22.581Z,1.53
2018-09-13T10:34:56.558Z,1.57
2018-09-13T10:37:30.591Z,4.20
2018-09-13T10:40:04.749Z,1.90
2018-09-13T10:42:38.826Z,2.03
2018-09-13T10:45:12.668Z,1.90
2018-09-13T10:47:56.478Z,2.23
2018-09-13T10:50:21.055Z,3.33
2018-09-13T10:52:54.721Z,2.30
2018-09-13T10:55:23.452Z,2.13
2018-09-13T10:57:52.360Z,2.93
2018-09-13T11:00:21.496Z,2.13
2018-09-13T11:02:50.214Z,2.27
2018-09-13T11:05:19.222Z,2.20
2018-09-13T11:07:48.254Z,2.10
2018-09-13T11:10:17.331Z,2.40
2018-09-13T11:12:47.914Z,2.20
2018-09-13T11:15:21.757Z,2.07
2018-09-13T11:17:50.432Z,1.77
2018-09-13T11:20:19.174Z,1.70
2018-09-13T11:22:52.098Z,1.87
2018-09-13T11:25:20.860Z,2.10
2018-09-13T11:27:49.562Z,2.27
2018-09-13T11:30:18.181Z,2.27
2018-09-13T11:32:47.216Z,1.77
2018-09-13T11:35:16.207Z,2.20
2018-09-13T11:37:45.076Z,2.07
2018-09-13T11:40:14.358Z,2.20
2018-09-13T11:42:43.442Z,2.10
2018-09-13T11:45:12.122Z,1.93
2018-09-13T11:47:41.526Z,1.63
2018-09-13T11:50:10.348Z,1.50
2018-09-13T11:52:39.043Z,1.50
2018-09-13T11:55:08.033Z,1.63
2018-09-13T11:57:36.914Z,1.77
2018-09-13T12:00:05.823Z,1.60
2018-09-13T12:02:34.457Z,1.47
2018-09-13T12:05:03.172Z,1.33
2018-09-13T12:07:31.903Z,1.30
2018-09-13T12:10:00.678Z,1.50
2018-09-13T12:12:29.497Z,1.33
2018-09-13T12:14:58.121Z,1.50
2018-09-13T12:17:30.189Z,1.10
2018-09-13T12:19:58.949Z,1.20
2018-09-13T12:22:27.769Z,2.33
2018-09-13T12:24:56.505Z,1.20
2018-09-13T12:27:25.587Z,1.30
2018-09-13T12:29:54.159Z,1.90
2018-09-13T12:32:22.712Z,1.97
2018-09-13T12:34:51.676Z,4.53
2018-09-13T12:37:20.492Z,1.53
2018-09-13T12:39:49.365Z,2.23
2018-09-13T12:42:18.399Z,2.93
2018-09-13T12:44:47.111Z,1.73
2018-09-13T12:47:15.908Z,2.60
2018-09-13T12:49:44.610Z,2.73
2018-09-13T12:52:13.848Z,6.47
2018-09-13T12:54:42.642Z,2.23
2018-09-13T12:57:17.555Z,2.20
2018-09-13T12:59:46.639Z,1.80
2018-09-13T13:02:15.794Z,2.63
2018-09-13T13:04:44.467Z,2.53
2018-09-13T13:07:13.191Z,2.57
2018-09-13T13:09:41.920Z,2.27
2018-09-13T13:12:10.694Z,2.30
2018-09-13T13:14:39.452Z,2.30
2018-09-13T13:17:08.252Z,2.40
2018-09-13T13:19:37.322Z,2.83
2018-09-13T13:22:06.190Z,2.50
2018-09-13T13:24:34.880Z,2.30
2018-09-13T13:27:03.793Z,2.20
2018-09-13T13:29:32.415Z,3.07
2018-09-13T13:32:01.400Z,2.63
2018-09-13T13:34:30.168Z,6.37
2018-09-13T13:36:58.960Z,2.67
2018-09-13T13:39:27.741Z,5.23
2018-09-13T13:41:56.496Z,2.90
2018-09-13T13:44:25.481Z,3.17
2018-09-13T13:46:54.232Z,2.80
2018-09-13T13:49:23.470Z,3.50
2018-09-13T13:51:52.317Z,3.40
2018-09-13T13:54:21.135Z,2.97
2018-09-13T13:56:50.019Z,2.97
2018-09-13T13:59:18.826Z,2.67
2018-09-13T14:01:47.696Z,2.90
2018-09-13T14:04:16.338Z,5.10
2018-09-13T14:06:45.499Z,2.83
2018-09-13T14:09:14.155Z,2.80
2018-09-13T14:11:43.048Z,3.30
2018-09-13T14:14:11.944Z,4.13
2018-09-13T14:16:40.816Z,3.13
2018-09-13T14:19:09.449Z,4.73
2018-09-13T14:21:38.188Z,3.70
2018-09-13T14:24:07.333Z,4.33
2018-09-13T14:26:36.069Z,5.93
2018-09-13T14:29:04.772Z,4.27
2018-09-13T14:31:33.382Z,5.77
2018-09-13T14:34:02.482Z,5.30
2018-09-13T14:36:31.434Z,5.23
2018-09-13T14:39:00.324Z,5.67
2018-09-13T14:41:28.921Z,5.90
2018-09-13T14:43:57.902Z,6.70
2018-09-13T14:46:26.641Z,7.13
2018-09-13T14:48:55.694Z,5.83
2018-09-13T14:51:24.530Z,6.50
2018-09-13T14:53:53.281Z,6.43
2018-09-13T14:56:21.978Z,6.83
2018-09-13T14:58:50.975Z,7.13
2018-09-13T15:01:19.924Z,6.83
2018-09-13T15:03:48.561Z,8.50
2018-09-13T15:06:17.333Z,10.37
2018-09-13T15:08:46.395Z,9.93
2018-09-13T15:11:15.389Z,7.90
2018-09-13T15:13:44.453Z,7.63
2018-09-13T15:16:13.018Z,8.07
2018-09-13T15:18:41.859Z,6.50
2018-09-13T15:21:10.707Z,7.27
2018-09-13T15:23:39.539Z,6.77
2018-09-13T15:26:08.452Z,6.03
2018-09-13T15:28:37.243Z,8.03
2018-09-13T15:31:06.210Z,8.37
2018-09-13T15:33:34.745Z,8.20
2018-09-13T15:36:03.533Z,8.10
2018-09-13T15:38:32.618Z,9.47
2018-09-13T15:41:01.271Z,7.27
2018-09-13T15:43:30.126Z,7.27
2018-09-13T15:45:59.245Z,6.13
2018-09-13T15:48:28.158Z,6.10
2018-09-13T15:50:57.022Z,5.83
2018-09-13T15:53:25.974Z,5.93
2018-09-13T15:55:55.103Z,5.17
2018-09-13T15:58:23.998Z,4.67
2018-09-13T16:00:53.218Z,5.63
2018-09-13T16:03:21.899Z,4.20
2018-09-13T16:05:50.929Z,3.70
2018-09-13T16:08:19.855Z,4.17
2018-09-13T16:10:48.973Z,4.77
2018-09-13T16:13:18.037Z,5.33
2018-09-13T16:15:46.644Z,5.57
2018-09-13T16:18:15.716Z,5.17
2018-09-13T16:20:44.959Z,4.93
2018-09-13T16:23:13.882Z,5.17
2018-09-13T16:25:43.450Z,6.87
2018-09-13T16:28:12.574Z,5.30
2018-09-13T16:30:41.619Z,5.50
2018-09-13T16:33:10.612Z,6.33
2018-09-13T16:35:50.473Z,5.47
2018-09-13T16:38:28.820Z,6.27
2018-09-13T16:41:03.358Z,8.57
2018-09-13T16:43:37.552Z,7.23
2018-09-13T16:46:07.978Z,7.97
2018-09-13T16:48:43.976Z,8.17
2018-09-13T16:51:13.255Z,10.77
2018-09-13T16:53:42.144Z,9.97
2018-09-13T16:56:10.888Z,12.50
2018-09-13T16:58:39.833Z,10.70
2018-09-13T17:01:08.850Z,10.60
2018-09-13T17:03:37.828Z,10.77
2018-09-13T17:06:06.856Z,13.07
2018-09-13T17:08:36.093Z,11.33
2018-09-13T17:11:05.044Z,12.13
2018-09-13T17:13:33.795Z,13.67
2018-09-13T17:16:02.812Z,11.83
2018-09-13T17:18:31.820Z,11.73
2018-09-13T17:21:00.450Z,12.23
2018-09-13T17:23:29.925Z,11.93
2018-09-13T17:25:58.968Z,11.60
2018-09-13T17:28:27.984Z,11.67
2018-09-13T17:30:56.909Z,12.00
2018-09-13T17:33:25.703Z,11.97
2018-09-13T17:35:55.746Z,11.10
2018-09-13T17:38:24.590Z,12.27
2018-09-13T17:40:54.216Z,14.47
2018-09-13T17:43:23.489Z,12.27
2018-09-13T17:45:52.816Z,11.53
2018-09-13T17:48:21.829Z,14.40
2018-09-13T17:50:51.489Z,13.00
2018-09-13T17:53:20.608Z,11.60
2018-09-13T17:55:50.275Z,12.53
2018-09-13T17:58:26.011Z,11.50
2018-09-13T18:00:55.638Z,11.93
2018-09-13T18:03:25.917Z,10.83
2018-09-13T18:05:55.111Z,13.33
2018-09-13T18:08:24.171Z,12.67
2018-09-13T18:10:53.501Z,12.17
2018-09-13T18:13:22.506Z,11.57
2018-09-13T18:15:51.686Z,10.30
2018-09-13T18:18:20.460Z,12.47
2018-09-13T18:20:49.479Z,10.97
2018-09-13T18:23:18.331Z,10.47
2018-09-13T18:25:47.236Z,11.37
2018-09-13T18:28:16.210Z,10.73
2018-09-13T18:30:45.381Z,11.80
2018-09-13T18:33:14.404Z,11.77
2018-09-13T18:35:43.478Z,11.27
2018-09-13T18:38:12.637Z,12.40
2018-09-13T18:40:41.444Z,12.27
2018-09-13T18:43:10.581Z,12.33
2018-09-13T18:45:39.734Z,11.60
2018-09-13T18:48:08.812Z,13.43
2018-09-13T18:50:38.414Z,11.10
2018-09-13T18:53:07.542Z,10.47
2018-09-13T18:55:36.472Z,11.20
2018-09-13T18:58:05.320Z,11.30
2018-09-13T19:00:34.133Z,10.77
2018-09-13T19:03:02.942Z,15.63
2018-09-13T19:05:31.923Z,10.87
2018-09-13T19:08:00.919Z,10.93
2018-09-13T19:10:30.007Z,13.83
2018-09-13T19:12:59.175Z,10.80
2018-09-13T19:15:28.108Z,11.50
2018-09-13T19:17:57.021Z,11.37
2018-09-13T19:20:25.900Z,12.90
2018-09-13T19:22:55.326Z,9.87
2018-09-13T19:25:24.603Z,10.47
2018-09-13T19:27:53.562Z,10.37
2018-09-13T19:30:22.696Z,10.73
2018-09-13T19:32:52.041Z,11.93
2018-09-13T19:35:21.489Z,10.70
2018-09-13T19:37:50.488Z,11.90
2018-09-13T19:40:19.424Z,16.07
2018-09-13T19:42:48.905Z,11.73
2018-09-13T19:45:17.736Z,12.30
2018-09-13T19:47:46.860Z,10.63
2018-09-13T19:50:15.931Z,13.60
2018-09-13T19:52:44.760Z,13.33
2018-09-13T19:55:13.904Z,12.73
2018-09-13T19:57:43.211Z,12.20
2018-09-13T20:00:12.514Z,13.20
2018-09-13T20:02:41.737Z,10.70
2018-09-13T20:05:10.758Z,15.20
2018-09-13T20:07:39.804Z,11.53
2018-09-13T20:10:08.568Z,13.47
2018-09-13T20:12:37.500Z,10.13
2018-09-13T20:15:07.006Z,14.30
2018-09-13T20:17:36.069Z,11.73
2018-09-13T20:20:05.085Z,11.03
2018-09-13T20:22:34.084Z,10.17
2018-09-13T20:25:02.903Z,10.27
2018-09-13T20:27:31.674Z,12.50
2018-09-13T20:30:00.482Z,13.10
2018-09-13T20:32:29.103Z,13.00
2018-09-13T20:34:57.810Z,12.43
2018-09-13T20:37:26.776Z,12.53
2018-09-13T20:39:55.642Z,12.83
2018-09-13T20:42:24.407Z,12.87
2018-09-13T20:44:53.197Z,11.13
2018-09-13T20:47:22.049Z,12.53
2018-09-13T20:49:51.089Z,11.23
2018-09-13T20:52:20.075Z,11.43
2018-09-13T20:54:48.924Z,12.87
2018-09-13T20:57:17.774Z,14.37
2018-09-13T20:59:46.482Z,11.83
2018-09-13T21:02:15.409Z,11.57
2018-09-13T21:04:44.377Z,13.17
2018-09-13T21:07:13.061Z,16.50
2018-09-13T21:09:41.914Z,12.70
2018-09-13T21:12:10.747Z,14.03
2018-09-13T21:14:39.594Z,14.20
2018-09-13T21:17:08.556Z,15.50
2018-09-13T21:19:37.541Z,16.83
2018-09-13T21:22:06.486Z,18.03
2018-09-13T21:24:35.229Z,17.17
2018-09-13T21:27:03.944Z,15.07
2018-09-13T21:29:32.761Z,15.33
2018-09-13T21:32:01.996Z,14.83
2018-09-13T21:34:31.102Z,15.70
2018-09-13T21:37:00.158Z,13.97
2018-09-13T21:39:28.878Z,13.23
2018-09-13T21:41:57.849Z,17.20
2018-09-13T21:44:26.781Z,12.77
2018-09-13T21:46:55.472Z,12.67
2018-09-13T21:49:24.326Z,20.27
2018-09-13T21:51:53.064Z,17.20
2018-09-13T21:54:21.605Z,19.67
2018-09-13T21:56:50.320Z,19.10
2018-09-13T21:59:19.067Z,21.67
2018-09-13T22:01:47.943Z,17.60
2018-09-13T22:04:16.708Z,19.63
2018-09-13T22:06:45.926Z,19.33
2018-09-13T22:09:16.498Z,21.37
2018-09-13T22:11:45.589Z,22.57
2018-09-13T22:14:14.318Z,27.20
2018-09-13T22:16:43.394Z,26.13
2018-09-13T22:19:12.146Z,25.53
2018-09-13T22:21:40.781Z,27.07
2018-09-13T22:24:09.724Z,28.93
2018-09-13T22:26:38.520Z,25.20
2018-09-13T22:29:07.240Z,23.63
2018-09-13T22:31:36.297Z,22.43
2018-09-13T22:34:06.783Z,23.23
2018-09-13T22:36:36.050Z,25.17
2018-09-13T22:39:07.953Z,24.33
2018-09-13T22:41:37.182Z,21.70
2018-09-13T22:44:05.930Z,22.60
2018-09-13T22:46:34.565Z,26.47
2018-09-13T22:49:03.427Z,23.90
2018-09-13T22:51:32.047Z,22.23
2018-09-13T22:54:01.525Z,25.37
2018-09-13T22:56:30.132Z,24.83
2018-09-13T22:58:58.778Z,24.43
2018-09-13T23:01:27.576Z,25.37
2018-09-13T23:03:56.221Z,28.47
2018-09-13T23:06:24.750Z,25.80
2018-09-13T23:08:53.742Z,24.03
2018-09-13T23:11:22.545Z,25.60
2018-09-13T23:13:51.298Z,26.67
2018-09-13T23:16:19.906Z,24.37
2018-09-13T23:18:48.708Z,27.87
2018-09-13T23:21:17.888Z,23.23
2018-09-13T23:23:46.446Z,25.10
2018-09-13T23:26:15.009Z,24.57
2018-09-13T23:28:43.637Z,25.20
2018-09-13T23:31:12.379Z,25.00
2018-09-13T23:33:41.008Z,27.30
2018-09-13T23:36:09.627Z,26.83
2018-09-13T23:38:38.191Z,25.33
2018-09-13T23:41:06.968Z,26.30
2018-09-13T23:43:35.648Z,30.27
2018-09-13T23:46:04.237Z,29.57
2018-09-13T23:48:33.066Z,30.77
2018-09-13T23:51:02.111Z,35.63
2018-09-13T23:53:30.823Z,29.33
2018-09-13T23:55:59.719Z,29.17
2018-09-13T23:58:28.489Z,29.17
